sensor_id;sensor_type;location;lat;lon;timestamp;temperature;humidity
38938;DHT22;24727;51.974;20.868;2022-11-20T00:01:26;-5.60;70.90
38938;DHT22;24727;51.974;20.868;2022-11-20T00:03:55;-5.60;69.60
38938;DHT22;24727;51.974;20.868;2022-11-20T00:06:23;-5.60;69.10
38938;DHT22;24727;51.974;20.868;2022-11-20T00:08:53;-5.70;68.40
38938;DHT22;24727;51.974;20.868;2022-11-20T00:11:22;-5.60;68.20
38938;DHT22;24727;51.974;20.868;2022-11-20T00:13:52;-5.60;69.30
38938;DHT22;24727;51.974;20.868;2022-11-20T00:16:21;-5.70;66.50
38938;DHT22;24727;51.974;20.868;2022-11-20T00:18:48;-5.60;66.40
38938;DHT22;24727;51.974;20.868;2022-11-20T00:21:16;-5.60;65.90
38938;DHT22;24727;51.974;20.868;2022-11-20T00:23:43;-5.60;66.30
38938;DHT22;24727;51.974;20.868;2022-11-20T00:26:12;-5.70;65.00
38938;DHT22;24727;51.974;20.868;2022-11-20T00:28:41;-5.60;66.10
38938;DHT22;24727;51.974;20.868;2022-11-20T00:31:10;-5.60;66.90
38938;DHT22;24727;51.974;20.868;2022-11-20T00:33:36;-5.60;65.60
38938;DHT22;24727;51.974;20.868;2022-11-20T00:36:04;-5.60;65.60
38938;DHT22;24727;51.974;20.868;2022-11-20T00:38:31;-5.60;66.70
38938;DHT22;24727;51.974;20.868;2022-11-20T00:40:59;-5.50;67.70
38938;DHT22;24727;51.974;20.868;2022-11-20T00:43:26;-5.50;68.00
38938;DHT22;24727;51.974;20.868;2022-11-20T00:45:59;-5.50;66.20
38938;DHT22;24727;51.974;20.868;2022-11-20T00:48:25;-5.50;66.30
38938;DHT22;24727;51.974;20.868;2022-11-20T00:50:53;-5.50;65.50
38938;DHT22;24727;51.974;20.868;2022-11-20T00:53:19;-5.40;66.10
38938;DHT22;24727;51.974;20.868;2022-11-20T00:55:57;-5.40;65.90
38938;DHT22;24727;51.974;20.868;2022-11-20T00:58:28;-5.40;65.60
38938;DHT22;24727;51.974;20.868;2022-11-20T01:01:00;-5.50;64.20
38938;DHT22;24727;51.974;20.868;2022-11-20T01:03:27;-5.50;64.20
38938;DHT22;24727;51.974;20.868;2022-11-20T01:05:53;-5.60;62.20
38938;DHT22;24727;51.974;20.868;2022-11-20T01:08:20;-5.60;63.20
38938;DHT22;24727;51.974;20.868;2022-11-20T01:10:46;-5.60;62.50
38938;DHT22;24727;51.974;20.868;2022-11-20T01:13:12;-5.70;61.50
38938;DHT22;24727;51.974;20.868;2022-11-20T01:16:06;-5.80;60.80
38938;DHT22;24727;51.974;20.868;2022-11-20T01:18:32;-5.80;61.90
38938;DHT22;24727;51.974;20.868;2022-11-20T01:21:10;-5.90;60.30
38938;DHT22;24727;51.974;20.868;2022-11-20T01:23:39;-5.80;62.30
38938;DHT22;24727;51.974;20.868;2022-11-20T01:26:12;-5.80;63.50
38938;DHT22;24727;51.974;20.868;2022-11-20T01:28:40;-5.70;64.70
38938;DHT22;24727;51.974;20.868;2022-11-20T01:33:45;-5.80;64.50
38938;DHT22;24727;51.974;20.868;2022-11-20T01:36:12;-5.80;63.30
38938;DHT22;24727;51.974;20.868;2022-11-20T01:38:38;-5.80;64.10
38938;DHT22;24727;51.974;20.868;2022-11-20T01:41:05;-5.90;62.80
38938;DHT22;24727;51.974;20.868;2022-11-20T01:43:32;-6.00;61.40
38938;DHT22;24727;51.974;20.868;2022-11-20T01:46:14;-6.00;60.80
38938;DHT22;24727;51.974;20.868;2022-11-20T01:49:04;-6.10;61.50
38938;DHT22;24727;51.974;20.868;2022-11-20T01:51:48;-6.10;62.20
38938;DHT22;24727;51.974;20.868;2022-11-20T01:54:41;-6.00;62.60
38938;DHT22;24727;51.974;20.868;2022-11-20T01:57:10;-5.90;63.20
38938;DHT22;24727;51.974;20.868;2022-11-20T01:59:43;-5.90;63.10
38938;DHT22;24727;51.974;20.868;2022-11-20T02:02:10;-5.80;63.20
38938;DHT22;24727;51.974;20.868;2022-11-20T02:04:36;-5.80;63.00
38938;DHT22;24727;51.974;20.868;2022-11-20T02:07:04;-5.80;63.30
38938;DHT22;24727;51.974;20.868;2022-11-20T02:09:31;-5.70;64.30
38938;DHT22;24727;51.974;20.868;2022-11-20T02:11:58;-5.70;64.20
38938;DHT22;24727;51.974;20.868;2022-11-20T02:14:24;-5.60;64.20
38938;DHT22;24727;51.974;20.868;2022-11-20T02:16:51;-5.60;64.30
38938;DHT22;24727;51.974;20.868;2022-11-20T02:19:28;-5.70;62.60
38938;DHT22;24727;51.974;20.868;2022-11-20T02:22:17;-5.70;62.30
38938;DHT22;24727;51.974;20.868;2022-11-20T02:24:46;-5.70;60.80
38938;DHT22;24727;51.974;20.868;2022-11-20T02:27:15;-5.70;59.10
38938;DHT22;24727;51.974;20.868;2022-11-20T02:29:53;-5.70;59.30
38938;DHT22;24727;51.974;20.868;2022-11-20T02:32:21;-5.70;59.40
38938;DHT22;24727;51.974;20.868;2022-11-20T02:34:47;-5.70;57.90
38938;DHT22;24727;51.974;20.868;2022-11-20T02:37:14;-5.70;58.80
38938;DHT22;24727;51.974;20.868;2022-11-20T02:39:40;-5.70;57.20
38938;DHT22;24727;51.974;20.868;2022-11-20T02:42:07;-5.80;57.10
38938;DHT22;24727;51.974;20.868;2022-11-20T02:44:35;-5.80;58.10
38938;DHT22;24727;51.974;20.868;2022-11-20T02:47:01;-5.80;58.50
38938;DHT22;24727;51.974;20.868;2022-11-20T02:49:27;-5.90;58.70
38938;DHT22;24727;51.974;20.868;2022-11-20T02:51:53;-5.90;57.90
38938;DHT22;24727;51.974;20.868;2022-11-20T02:54:19;-6.00;57.30
38938;DHT22;24727;51.974;20.868;2022-11-20T02:56:45;-6.00;59.20
38938;DHT22;24727;51.974;20.868;2022-11-20T02:59:11;-6.00;59.70
38938;DHT22;24727;51.974;20.868;2022-11-20T03:01:38;-6.00;59.40
38938;DHT22;24727;51.974;20.868;2022-11-20T03:04:05;-6.10;58.60
38938;DHT22;24727;51.974;20.868;2022-11-20T03:06:31;-6.10;60.10
38938;DHT22;24727;51.974;20.868;2022-11-20T03:08:57;-6.10;60.10
38938;DHT22;24727;51.974;20.868;2022-11-20T03:11:23;-6.00;63.00
38938;DHT22;24727;51.974;20.868;2022-11-20T03:13:49;-6.00;62.00
38938;DHT22;24727;51.974;20.868;2022-11-20T03:16:24;-6.00;62.70
38938;DHT22;24727;51.974;20.868;2022-11-20T03:18:52;-6.10;60.40
38938;DHT22;24727;51.974;20.868;2022-11-20T03:21:18;-6.00;62.70
38938;DHT22;24727;51.974;20.868;2022-11-20T03:23:45;-6.00;64.10
38938;DHT22;24727;51.974;20.868;2022-11-20T03:26:22;-6.10;63.30
38938;DHT22;24727;51.974;20.868;2022-11-20T03:28:50;-6.10;64.70
38938;DHT22;24727;51.974;20.868;2022-11-20T03:31:19;-6.10;65.20
38938;DHT22;24727;51.974;20.868;2022-11-20T03:33:45;-6.10;67.20
38938;DHT22;24727;51.974;20.868;2022-11-20T03:36:13;-6.00;69.20
38938;DHT22;24727;51.974;20.868;2022-11-20T03:38:40;-5.90;69.50
38938;DHT22;24727;51.974;20.868;2022-11-20T03:41:08;-6.00;68.50
38938;DHT22;24727;51.974;20.868;2022-11-20T03:43:35;-6.10;65.70
38938;DHT22;24727;51.974;20.868;2022-11-20T03:46:01;-6.20;63.50
38938;DHT22;24727;51.974;20.868;2022-11-20T03:48:28;-6.40;61.10
38938;DHT22;24727;51.974;20.868;2022-11-20T03:51:18;-6.30;64.10
38938;DHT22;24727;51.974;20.868;2022-11-20T03:53:46;-6.30;64.30
38938;DHT22;24727;51.974;20.868;2022-11-20T03:56:14;-6.30;64.90
38938;DHT22;24727;51.974;20.868;2022-11-20T03:58:49;-6.50;62.80
38938;DHT22;24727;51.974;20.868;2022-11-20T04:03:43;-6.70;62.90
38938;DHT22;24727;51.974;20.868;2022-11-20T04:06:20;-6.70;64.80
38938;DHT22;24727;51.974;20.868;2022-11-20T04:08:46;-6.70;65.00
38938;DHT22;24727;51.974;20.868;2022-11-20T04:11:33;-6.60;65.90
38938;DHT22;24727;51.974;20.868;2022-11-20T04:14:02;-6.60;65.80
38938;DHT22;24727;51.974;20.868;2022-11-20T04:16:34;-6.60;66.10
38938;DHT22;24727;51.974;20.868;2022-11-20T04:19:04;-6.60;66.20
38938;DHT22;24727;51.974;20.868;2022-11-20T04:21:30;-6.50;66.80
38938;DHT22;24727;51.974;20.868;2022-11-20T04:23:56;-6.50;67.20
38938;DHT22;24727;51.974;20.868;2022-11-20T04:26:24;-6.50;67.20
38938;DHT22;24727;51.974;20.868;2022-11-20T04:28:51;-6.50;67.60
38938;DHT22;24727;51.974;20.868;2022-11-20T04:31:22;-6.50;67.60
38938;DHT22;24727;51.974;20.868;2022-11-20T04:33:49;-6.50;67.80
38938;DHT22;24727;51.974;20.868;2022-11-20T04:36:33;-6.50;68.10
38938;DHT22;24727;51.974;20.868;2022-11-20T04:39:03;-6.50;67.90
38938;DHT22;24727;51.974;20.868;2022-11-20T04:41:35;-6.50;67.50
38938;DHT22;24727;51.974;20.868;2022-11-20T04:44:02;-6.50;67.80
38938;DHT22;24727;51.974;20.868;2022-11-20T04:46:35;-6.60;67.40
38938;DHT22;24727;51.974;20.868;2022-11-20T04:49:03;-6.60;67.00
38938;DHT22;24727;51.974;20.868;2022-11-20T04:51:30;-6.60;68.30
38938;DHT22;24727;51.974;20.868;2022-11-20T04:53:57;-6.70;68.30
38938;DHT22;24727;51.974;20.868;2022-11-20T04:56:23;-6.80;67.70
38938;DHT22;24727;51.974;20.868;2022-11-20T04:58:50;-6.90;68.50
38938;DHT22;24727;51.974;20.868;2022-11-20T05:01:21;-7.00;69.40
38938;DHT22;24727;51.974;20.868;2022-11-20T05:03:48;-7.00;71.10
38938;DHT22;24727;51.974;20.868;2022-11-20T05:06:17;-7.10;72.20
38938;DHT22;24727;51.974;20.868;2022-11-20T05:08:45;-7.10;71.60
38938;DHT22;24727;51.974;20.868;2022-11-20T05:11:13;-7.10;72.80
38938;DHT22;24727;51.974;20.868;2022-11-20T05:13:40;-7.10;74.10
38938;DHT22;24727;51.974;20.868;2022-11-20T05:16:15;-7.10;74.50
38938;DHT22;24727;51.974;20.868;2022-11-20T05:18:41;-7.10;74.60
38938;DHT22;24727;51.974;20.868;2022-11-20T05:21:10;-7.10;74.80
38938;DHT22;24727;51.974;20.868;2022-11-20T05:23:37;-7.10;74.50
38938;DHT22;24727;51.974;20.868;2022-11-20T05:26:04;-7.00;75.20
38938;DHT22;24727;51.974;20.868;2022-11-20T05:28:31;-7.00;75.10
38938;DHT22;24727;51.974;20.868;2022-11-20T05:31:05;-7.00;75.50
38938;DHT22;24727;51.974;20.868;2022-11-20T05:33:33;-7.00;75.20
38938;DHT22;24727;51.974;20.868;2022-11-20T05:36:00;-7.00;75.40
38938;DHT22;24727;51.974;20.868;2022-11-20T05:38:25;-6.90;75.90
38938;DHT22;24727;51.974;20.868;2022-11-20T05:40:51;-6.90;76.20
38938;DHT22;24727;51.974;20.868;2022-11-20T05:43:17;-6.90;76.50
38938;DHT22;24727;51.974;20.868;2022-11-20T05:45:52;-6.90;76.30
38938;DHT22;24727;51.974;20.868;2022-11-20T05:48:20;-6.90;75.40
38938;DHT22;24727;51.974;20.868;2022-11-20T05:50:48;-7.00;74.50
38938;DHT22;24727;51.974;20.868;2022-11-20T05:53:14;-7.10;74.00
38938;DHT22;24727;51.974;20.868;2022-11-20T05:55:46;-7.10;73.50
38938;DHT22;24727;51.974;20.868;2022-11-20T05:58:12;-7.10;74.30
38938;DHT22;24727;51.974;20.868;2022-11-20T06:00:39;-7.10;75.50
38938;DHT22;24727;51.974;20.868;2022-11-20T06:03:05;-7.10;75.10
38938;DHT22;24727;51.974;20.868;2022-11-20T06:05:33;-7.20;73.70
38938;DHT22;24727;51.974;20.868;2022-11-20T06:08:00;-7.20;74.00
38938;DHT22;24727;51.974;20.868;2022-11-20T06:10:27;-7.10;75.00
38938;DHT22;24727;51.974;20.868;2022-11-20T06:12:57;-7.10;75.70
38938;DHT22;24727;51.974;20.868;2022-11-20T06:15:25;-7.10;76.00
38938;DHT22;24727;51.974;20.868;2022-11-20T06:17:55;-7.00;77.00
38938;DHT22;24727;51.974;20.868;2022-11-20T06:20:22;-7.00;77.80
38938;DHT22;24727;51.974;20.868;2022-11-20T06:22:48;-6.90;77.90
38938;DHT22;24727;51.974;20.868;2022-11-20T06:25:14;-6.90;78.10
38938;DHT22;24727;51.974;20.868;2022-11-20T06:27:40;-6.90;78.10
38938;DHT22;24727;51.974;20.868;2022-11-20T06:30:08;-6.90;77.20
38938;DHT22;24727;51.974;20.868;2022-11-20T06:32:36;-6.90;76.50
38938;DHT22;24727;51.974;20.868;2022-11-20T06:35:01;-6.90;76.50
38938;DHT22;24727;51.974;20.868;2022-11-20T06:37:27;-6.80;75.70
38938;DHT22;24727;51.974;20.868;2022-11-20T06:39:53;-6.90;74.00
38938;DHT22;24727;51.974;20.868;2022-11-20T06:42:25;-6.90;73.20
38938;DHT22;24727;51.974;20.868;2022-11-20T06:44:51;-6.90;72.20
38938;DHT22;24727;51.974;20.868;2022-11-20T06:47:17;-6.90;71.70
38938;DHT22;24727;51.974;20.868;2022-11-20T06:49:43;-6.90;71.10
38938;DHT22;24727;51.974;20.868;2022-11-20T06:52:09;-6.90;71.10
38938;DHT22;24727;51.974;20.868;2022-11-20T06:54:36;-6.90;70.70
38938;DHT22;24727;51.974;20.868;2022-11-20T06:57:03;-6.80;71.20
38938;DHT22;24727;51.974;20.868;2022-11-20T06:59:30;-6.80;71.50
38938;DHT22;24727;51.974;20.868;2022-11-20T07:01:56;-6.80;70.90
38938;DHT22;24727;51.974;20.868;2022-11-20T07:04:22;-6.80;70.90
38938;DHT22;24727;51.974;20.868;2022-11-20T07:06:48;-6.80;70.70
38938;DHT22;24727;51.974;20.868;2022-11-20T07:09:14;-6.70;71.10
38938;DHT22;24727;51.974;20.868;2022-11-20T07:11:40;-6.70;70.80
38938;DHT22;24727;51.974;20.868;2022-11-20T07:14:08;-6.70;70.90
38938;DHT22;24727;51.974;20.868;2022-11-20T07:16:36;-6.60;71.00
38938;DHT22;24727;51.974;20.868;2022-11-20T07:19:02;-6.60;70.40
38938;DHT22;24727;51.974;20.868;2022-11-20T07:21:29;-6.60;71.00
38938;DHT22;24727;51.974;20.868;2022-11-20T07:23:55;-6.50;70.60
38938;DHT22;24727;51.974;20.868;2022-11-20T07:26:22;-6.60;70.40
38938;DHT22;24727;51.974;20.868;2022-11-20T07:28:49;-6.50;71.30
38938;DHT22;24727;51.974;20.868;2022-11-20T07:31:15;-6.50;71.60
38938;DHT22;24727;51.974;20.868;2022-11-20T07:33:41;-6.40;72.00
38938;DHT22;24727;51.974;20.868;2022-11-20T07:36:08;-6.40;72.40
38938;DHT22;24727;51.974;20.868;2022-11-20T07:38:34;-6.30;72.50
38938;DHT22;24727;51.974;20.868;2022-11-20T07:41:01;-6.30;72.70
38938;DHT22;24727;51.974;20.868;2022-11-20T07:43:27;-6.30;72.70
38938;DHT22;24727;51.974;20.868;2022-11-20T07:45:57;-6.20;73.00
38938;DHT22;24727;51.974;20.868;2022-11-20T07:48:24;-6.20;73.00
38938;DHT22;24727;51.974;20.868;2022-11-20T07:50:54;-6.20;73.30
38938;DHT22;24727;51.974;20.868;2022-11-20T07:53:20;-6.10;73.20
38938;DHT22;24727;51.974;20.868;2022-11-20T07:55:48;-6.10;73.00
38938;DHT22;24727;51.974;20.868;2022-11-20T07:58:14;-6.00;73.40
38938;DHT22;24727;51.974;20.868;2022-11-20T08:00:46;-5.90;74.30
38938;DHT22;24727;51.974;20.868;2022-11-20T08:03:14;-5.80;73.70
38938;DHT22;24727;51.974;20.868;2022-11-20T08:05:39;-5.70;72.90
38938;DHT22;24727;51.974;20.868;2022-11-20T08:08:06;-5.70;72.70
38938;DHT22;24727;51.974;20.868;2022-11-20T08:10:34;-5.60;71.90
38938;DHT22;24727;51.974;20.868;2022-11-20T08:13:01;-5.50;72.00
38938;DHT22;24727;51.974;20.868;2022-11-20T08:15:50;-5.40;70.60
38938;DHT22;24727;51.974;20.868;2022-11-20T08:18:17;-5.40;70.50
38938;DHT22;24727;51.974;20.868;2022-11-20T08:20:44;-5.30;70.70
38938;DHT22;24727;51.974;20.868;2022-11-20T08:23:11;-5.20;69.60
38938;DHT22;24727;51.974;20.868;2022-11-20T08:25:38;-5.20;69.60
38938;DHT22;24727;51.974;20.868;2022-11-20T08:28:06;-5.00;70.10
38938;DHT22;24727;51.974;20.868;2022-11-20T08:30:35;-4.90;70.50
38938;DHT22;24727;51.974;20.868;2022-11-20T08:33:06;-4.90;70.30
38938;DHT22;24727;51.974;20.868;2022-11-20T08:35:37;-4.80;70.00
38938;DHT22;24727;51.974;20.868;2022-11-20T08:38:04;-4.70;70.00
38938;DHT22;24727;51.974;20.868;2022-11-20T08:40:33;-4.60;70.00
38938;DHT22;24727;51.974;20.868;2022-11-20T08:42:59;-4.50;67.20
38938;DHT22;24727;51.974;20.868;2022-11-20T08:45:25;-4.40;66.90
38938;DHT22;24727;51.974;20.868;2022-11-20T08:47:51;-4.30;66.10
38938;DHT22;24727;51.974;20.868;2022-11-20T08:50:18;-4.20;61.50
38938;DHT22;24727;51.974;20.868;2022-11-20T08:52:44;-4.00;62.40
38938;DHT22;24727;51.974;20.868;2022-11-20T08:55:10;-4.00;63.00
38938;DHT22;24727;51.974;20.868;2022-11-20T08:57:38;-3.90;62.80
38938;DHT22;24727;51.974;20.868;2022-11-20T09:00:06;-3.80;62.00
38938;DHT22;24727;51.974;20.868;2022-11-20T09:02:32;-3.80;59.80
38938;DHT22;24727;51.974;20.868;2022-11-20T09:05:00;-3.70;59.90
38938;DHT22;24727;51.974;20.868;2022-11-20T09:07:29;-3.50;58.30
38938;DHT22;24727;51.974;20.868;2022-11-20T09:09:57;-3.50;57.00
38938;DHT22;24727;51.974;20.868;2022-11-20T09:12:24;-3.40;55.80
38938;DHT22;24727;51.974;20.868;2022-11-20T09:14:51;-3.30;52.00
38938;DHT22;24727;51.974;20.868;2022-11-20T09:17:17;-3.30;50.80
38938;DHT22;24727;51.974;20.868;2022-11-20T09:19:44;-3.20;53.50
38938;DHT22;24727;51.974;20.868;2022-11-20T09:22:10;-3.10;53.00
38938;DHT22;24727;51.974;20.868;2022-11-20T09:24:35;-3.00;51.20
38938;DHT22;24727;51.974;20.868;2022-11-20T09:27:03;-2.90;52.80
38938;DHT22;24727;51.974;20.868;2022-11-20T09:29:29;-2.90;51.30
38938;DHT22;24727;51.974;20.868;2022-11-20T09:31:55;-2.80;48.70
38938;DHT22;24727;51.974;20.868;2022-11-20T09:34:21;-2.70;51.40
38938;DHT22;24727;51.974;20.868;2022-11-20T09:36:49;-2.70;48.40
38938;DHT22;24727;51.974;20.868;2022-11-20T09:39:15;-2.70;47.60
38938;DHT22;24727;51.974;20.868;2022-11-20T09:41:45;-2.60;47.40
38938;DHT22;24727;51.974;20.868;2022-11-20T09:52:46;-2.20;1.00
38938;DHT22;24727;51.974;20.868;2022-11-20T09:55:16;-2.20;1.00
38938;DHT22;24727;51.974;20.868;2022-11-20T09:57:46;-2.10;1.00
38938;DHT22;24727;51.974;20.868;2022-11-20T10:00:14;-2.00;1.00
38938;DHT22;24727;51.974;20.868;2022-11-20T10:02:47;-1.90;1.00
38938;DHT22;24727;51.974;20.868;2022-11-20T10:05:25;-1.80;1.00
38938;DHT22;24727;51.974;20.868;2022-11-20T10:08:16;-1.70;1.00
38938;DHT22;24727;51.974;20.868;2022-11-20T10:11:04;-1.60;1.00
38938;DHT22;24727;51.974;20.868;2022-11-20T10:16:29;-1.50;1.00
38938;DHT22;24727;51.974;20.868;2022-11-20T10:25:02;-1.10;1.00
38938;DHT22;24727;51.974;20.868;2022-11-20T10:27:48;-1.00;1.00
38938;DHT22;24727;51.974;20.868;2022-11-20T10:30:17;-1.00;1.00
38938;DHT22;24727;51.974;20.868;2022-11-20T10:32:49;-0.90;1.00
38938;DHT22;24727;51.974;20.868;2022-11-20T10:35:34;-0.80;1.00
38938;DHT22;24727;51.974;20.868;2022-11-20T10:38:09;-0.80;1.00
38938;DHT22;24727;51.974;20.868;2022-11-20T10:40:41;-0.80;1.00
38938;DHT22;24727;51.974;20.868;2022-11-20T10:43:16;-0.80;1.00
38938;DHT22;24727;51.974;20.868;2022-11-20T10:48:21;-0.70;1.00
38938;DHT22;24727;51.974;20.868;2022-11-20T10:53:46;-0.60;1.00
38938;DHT22;24727;51.974;20.868;2022-11-20T10:56:31;-0.70;1.00
38938;DHT22;24727;51.974;20.868;2022-11-20T11:01:38;-0.50;1.00
38938;DHT22;24727;51.974;20.868;2022-11-20T11:06:58;-0.50;1.00
38938;DHT22;24727;51.974;20.868;2022-11-20T11:09:37;-0.50;1.00
38938;DHT22;24727;51.974;20.868;2022-11-20T11:12:08;-0.60;1.00
38938;DHT22;24727;51.974;20.868;2022-11-20T11:14:49;-0.60;1.00
38938;DHT22;24727;51.974;20.868;2022-11-20T11:17:31;-0.50;1.00
38938;DHT22;24727;51.974;20.868;2022-11-20T11:20:14;-0.50;1.00
38938;DHT22;24727;51.974;20.868;2022-11-20T11:22:47;-0.50;1.00
38938;DHT22;24727;51.974;20.868;2022-11-20T11:25:34;-0.40;1.00
38938;DHT22;24727;51.974;20.868;2022-11-20T11:28:03;-0.40;1.00
38938;DHT22;24727;51.974;20.868;2022-11-20T11:30:41;-0.30;1.00
38938;DHT22;24727;51.974;20.868;2022-11-20T11:33:22;-0.30;1.00
38938;DHT22;24727;51.974;20.868;2022-11-20T11:35:50;-0.20;1.00
38938;DHT22;24727;51.974;20.868;2022-11-20T11:38:37;-0.10;1.00
38938;DHT22;24727;51.974;20.868;2022-11-20T11:41:05;-0.20;1.00
38938;DHT22;24727;51.974;20.868;2022-11-20T11:43:36;-0.20;1.00
38938;DHT22;24727;51.974;20.868;2022-11-20T11:46:35;-0.20;1.00
38938;DHT22;24727;51.974;20.868;2022-11-20T11:54:55;-0.20;1.00
38938;DHT22;24727;51.974;20.868;2022-11-20T11:57:43;-0.20;1.00
38938;DHT22;24727;51.974;20.868;2022-11-20T12:00:15;-0.20;1.00
38938;DHT22;24727;51.974;20.868;2022-11-20T12:08:03;-0.10;1.00
38938;DHT22;24727;51.974;20.868;2022-11-20T12:10:43;-0.10;1.00
38938;DHT22;24727;51.974;20.868;2022-11-20T12:15:55;0.00;1.00
38938;DHT22;24727;51.974;20.868;2022-11-20T12:18:22;0.00;1.00
38938;DHT22;24727;51.974;20.868;2022-11-20T12:32:42;-0.10;1.00
38938;DHT22;24727;51.974;20.868;2022-11-20T12:44:07;0.00;1.00
38938;DHT22;24727;51.974;20.868;2022-11-20T12:46:52;0.00;1.00
38938;DHT22;24727;51.974;20.868;2022-11-20T12:57:41;0.00;1.00
38938;DHT22;24727;51.974;20.868;2022-11-20T13:00:14;0.10;1.00
38938;DHT22;24727;51.974;20.868;2022-11-20T13:08:00;0.60;1.00
38938;DHT22;24727;51.974;20.868;2022-11-20T13:10:31;0.40;1.00
38938;DHT22;24727;51.974;20.868;2022-11-20T13:13:14;0.30;1.00
38938;DHT22;24727;51.974;20.868;2022-11-20T13:15:48;0.10;1.00
38938;DHT22;24727;51.974;20.868;2022-11-20T13:18:16;0.10;1.00
38938;DHT22;24727;51.974;20.868;2022-11-20T13:20:44;0.10;1.00
38938;DHT22;24727;51.974;20.868;2022-11-20T13:23:11;0.20;1.00
38938;DHT22;24727;51.974;20.868;2022-11-20T13:25:39;0.20;1.00
38938;DHT22;24727;51.974;20.868;2022-11-20T13:30:48;0.00;1.00
38938;DHT22;24727;51.974;20.868;2022-11-20T13:33:49;-0.10;1.00
38938;DHT22;24727;51.974;20.868;2022-11-20T13:36:23;-0.20;1.00
38938;DHT22;24727;51.974;20.868;2022-11-20T13:38:52;-0.20;1.00
38938;DHT22;24727;51.974;20.868;2022-11-20T13:41:32;-0.20;1.00
38938;DHT22;24727;51.974;20.868;2022-11-20T13:46:44;-0.20;1.00
38938;DHT22;24727;51.974;20.868;2022-11-20T13:49:34;-0.20;1.00
38938;DHT22;24727;51.974;20.868;2022-11-20T14:00:28;-0.40;1.00
38938;DHT22;24727;51.974;20.868;2022-11-20T14:05:26;-0.40;1.00
38938;DHT22;24727;51.974;20.868;2022-11-20T14:07:54;-0.50;1.00
38938;DHT22;24727;51.974;20.868;2022-11-20T14:10:26;-0.50;1.00
38938;DHT22;24727;51.974;20.868;2022-11-20T14:12:53;-0.60;1.00
38938;DHT22;24727;51.974;20.868;2022-11-20T14:15:32;-0.70;1.00
38938;DHT22;24727;51.974;20.868;2022-11-20T14:18:14;-0.70;1.00
38938;DHT22;24727;51.974;20.868;2022-11-20T14:20:41;-0.80;1.00
38938;DHT22;24727;51.974;20.868;2022-11-20T14:23:10;-0.80;1.00
38938;DHT22;24727;51.974;20.868;2022-11-20T14:25:42;-0.90;1.00
38938;DHT22;24727;51.974;20.868;2022-11-20T14:28:27;-1.00;1.00
38938;DHT22;24727;51.974;20.868;2022-11-20T14:30:54;-1.10;1.00
38938;DHT22;24727;51.974;20.868;2022-11-20T14:33:21;-1.20;1.00
38938;DHT22;24727;51.974;20.868;2022-11-20T14:35:53;-1.20;1.00
38938;DHT22;24727;51.974;20.868;2022-11-20T14:38:24;-1.20;1.00
38938;DHT22;24727;51.974;20.868;2022-11-20T14:40:50;-1.30;1.00
38938;DHT22;24727;51.974;20.868;2022-11-20T14:45:59;-1.40;1.00
38938;DHT22;24727;51.974;20.868;2022-11-20T14:48:35;-1.50;1.00
38938;DHT22;24727;51.974;20.868;2022-11-20T14:51:02;-1.60;1.00
38938;DHT22;24727;51.974;20.868;2022-11-20T14:53:28;-1.60;1.00
38938;DHT22;24727;51.974;20.868;2022-11-20T14:55:58;-1.70;1.00
38938;DHT22;24727;51.974;20.868;2022-11-20T14:58:26;-1.60;1.00
38938;DHT22;24727;51.974;20.868;2022-11-20T15:01:01;-1.60;1.00
38938;DHT22;24727;51.974;20.868;2022-11-20T15:03:45;-1.60;1.00
38938;DHT22;24727;51.974;20.868;2022-11-20T15:06:12;-1.60;1.00
38938;DHT22;24727;51.974;20.868;2022-11-20T15:08:50;-1.70;1.00
38938;DHT22;24727;51.974;20.868;2022-11-20T15:11:30;-1.70;1.00
38938;DHT22;24727;51.974;20.868;2022-11-20T15:14:01;-1.70;1.00
38938;DHT22;24727;51.974;20.868;2022-11-20T15:16:27;-1.70;1.00
38938;DHT22;24727;51.974;20.868;2022-11-20T15:18:54;-1.80;1.00
38938;DHT22;24727;51.974;20.868;2022-11-20T15:21:21;-1.80;1.00
38938;DHT22;24727;51.974;20.868;2022-11-20T15:23:48;-1.90;1.00
38938;DHT22;24727;51.974;20.868;2022-11-20T15:26:22;-1.90;1.00
38938;DHT22;24727;51.974;20.868;2022-11-20T15:28:54;-2.00;1.00
38938;DHT22;24727;51.974;20.868;2022-11-20T15:31:22;-1.90;1.00
38938;DHT22;24727;51.974;20.868;2022-11-20T15:33:50;-2.00;1.00
38938;DHT22;24727;51.974;20.868;2022-11-20T15:36:16;-2.10;1.00
38938;DHT22;24727;51.974;20.868;2022-11-20T15:38:42;-2.00;1.00
38938;DHT22;24727;51.974;20.868;2022-11-20T15:41:08;-2.00;1.00
38938;DHT22;24727;51.974;20.868;2022-11-20T15:43:34;-2.10;1.00
38938;DHT22;24727;51.974;20.868;2022-11-20T15:46:03;-2.10;1.00
38938;DHT22;24727;51.974;20.868;2022-11-20T15:48:36;-2.20;1.00
38938;DHT22;24727;51.974;20.868;2022-11-20T15:53:36;-2.30;1.00
38938;DHT22;24727;51.974;20.868;2022-11-20T15:56:04;-2.30;1.00
38938;DHT22;24727;51.974;20.868;2022-11-20T15:58:30;-2.30;1.00
38938;DHT22;24727;51.974;20.868;2022-11-20T16:00:57;-2.30;1.00
38938;DHT22;24727;51.974;20.868;2022-11-20T16:03:23;-2.40;1.00
38938;DHT22;24727;51.974;20.868;2022-11-20T16:05:50;-2.40;1.00
38938;DHT22;24727;51.974;20.868;2022-11-20T16:08:16;-2.30;1.00
38938;DHT22;24727;51.974;20.868;2022-11-20T16:10:43;-2.30;1.00
38938;DHT22;24727;51.974;20.868;2022-11-20T16:13:17;-2.30;1.00
38938;DHT22;24727;51.974;20.868;2022-11-20T16:16:08;-2.40;1.00
38938;DHT22;24727;51.974;20.868;2022-11-20T16:18:38;-2.60;1.00
38938;DHT22;24727;51.974;20.868;2022-11-20T16:21:04;-2.70;1.00
38938;DHT22;24727;51.974;20.868;2022-11-20T16:23:32;-2.70;1.00
38938;DHT22;24727;51.974;20.868;2022-11-20T16:25:59;-2.60;1.00
38938;DHT22;24727;51.974;20.868;2022-11-20T16:28:34;-2.60;1.00
38938;DHT22;24727;51.974;20.868;2022-11-20T16:31:21;-2.60;1.00
38938;DHT22;24727;51.974;20.868;2022-11-20T16:33:52;-2.60;1.00
38938;DHT22;24727;51.974;20.868;2022-11-20T16:36:21;-2.70;1.00
38938;DHT22;24727;51.974;20.868;2022-11-20T16:38:52;-2.70;1.00
38938;DHT22;24727;51.974;20.868;2022-11-20T16:41:19;-2.80;1.00
38938;DHT22;24727;51.974;20.868;2022-11-20T16:43:46;-2.80;1.00
38938;DHT22;24727;51.974;20.868;2022-11-20T16:46:14;-2.70;1.00
38938;DHT22;24727;51.974;20.868;2022-11-20T16:48:40;-2.80;1.00
38938;DHT22;24727;51.974;20.868;2022-11-20T16:51:11;-2.80;1.00
38938;DHT22;24727;51.974;20.868;2022-11-20T16:53:38;-2.90;1.00
38938;DHT22;24727;51.974;20.868;2022-11-20T16:56:13;-2.80;1.00
38938;DHT22;24727;51.974;20.868;2022-11-20T16:58:45;-2.90;1.00
38938;DHT22;24727;51.974;20.868;2022-11-20T17:01:15;-3.00;1.00
38938;DHT22;24727;51.974;20.868;2022-11-20T17:03:42;-3.00;1.00
38938;DHT22;24727;51.974;20.868;2022-11-20T17:06:17;-3.00;1.00
38938;DHT22;24727;51.974;20.868;2022-11-20T17:08:43;-3.10;1.00
38938;DHT22;24727;51.974;20.868;2022-11-20T17:11:17;-3.10;1.00
38938;DHT22;24727;51.974;20.868;2022-11-20T17:13:44;-3.10;1.00
38938;DHT22;24727;51.974;20.868;2022-11-20T17:16:22;-3.20;1.00
38938;DHT22;24727;51.974;20.868;2022-11-20T17:18:49;-3.30;1.00
38938;DHT22;24727;51.974;20.868;2022-11-20T17:21:16;-3.30;1.00
38938;DHT22;24727;51.974;20.868;2022-11-20T17:23:44;-3.20;1.00